Time;durP1;ratioP1;P1;durP2;ratioP2;P2;SDS_P1;SDS_P2;PMS_P1;PMS_P2;Temp;Humidity;BMP_temperature;BMP_pressure;BME280_temperature;BME280_humidity;BME280_pressure;Samples;Min_cycle;Max_cycle;Signal;HPM_P1;HPM_P2
2023/02/26 00:01:02;;;;;;;0.50;0.50;;;1.90;99.90;;;;;;6246594;23;20022;-70
2023/02/26 00:03:28;;;;;;;0.50;0.50;;;1.90;99.90;;;;;;6219485;23;20008;-70
2023/02/26 00:05:57;;;;;;;0.50;0.50;;;2.00;99.90;;;;;;6246746;23;20009;-70
2023/02/26 00:08:23;;;;;;;0.60;0.60;;;2.00;99.90;;;;;;6219533;23;20024;-70
2023/02/26 00:10:49;;;;;;;0.60;0.60;;;2.10;99.90;;;;;;6246724;23;20087;-70
2023/02/26 00:13:15;;;;;;;0.43;0.43;;;2.10;99.90;;;;;;6246308;23;20113;-70
2023/02/26 00:15:40;;;;;;;0.60;0.60;;;2.10;99.90;;;;;;6246274;23;20008;-70
2023/02/26 00:18:12;;;;;;;0.45;0.45;;;2.00;99.90;;;;;;6246566;23;20069;-70
2023/02/26 00:20:38;;;;;;;0.50;0.50;;;2.00;99.90;;;;;;6219350;23;20020;-70
2023/02/26 00:23:04;;;;;;;0.60;0.60;;;2.10;99.90;;;;;;6246567;23;20004;-70
2023/02/26 00:25:30;;;;;;;0.50;0.50;;;2.00;99.90;;;;;;6246236;23;20377;-70
2023/02/26 00:27:56;;;;;;;0.45;0.45;;;2.00;99.90;;;;;;6246489;23;20047;-70
2023/02/26 00:30:22;;;;;;;0.60;0.60;;;2.10;99.90;;;;;;6219311;23;20016;-70
2023/02/26 00:32:48;;;;;;;0.50;0.50;;;2.20;99.90;;;;;;6246533;23;20020;-70
2023/02/26 00:35:15;;;;;;;0.50;0.50;;;2.20;99.90;;;;;;6220242;23;20019;-70
2023/02/26 00:37:59;;;;;;;0.47;0.47;;;2.20;99.90;;;;;;6221379;23;20016;-70
2023/02/26 00:40:39;;;;;;;0.50;0.50;;;2.30;99.90;;;;;;6221429;23;20062;-70
2023/02/26 00:43:07;;;;;;;0.60;0.60;;;2.20;99.90;;;;;;6248318;23;20016;-70
2023/02/26 00:45:34;;;;;;;0.75;0.70;;;2.20;99.90;;;;;;6248614;23;20019;-70
2023/02/26 00:48:29;;;;;;;0.40;0.40;;;2.20;99.90;;;;;;6248547;23;20077;-70
2023/02/26 00:51:09;;;;;;;0.55;0.55;;;2.10;99.90;;;;;;6221451;23;20015;-70
2023/02/26 00:53:48;;;;;;;0.55;0.55;;;2.10;99.90;;;;;;6248380;23;20012;-70
2023/02/26 00:56:14;;;;;;;0.45;0.45;;;2.00;99.90;;;;;;6221267;23;20012;-70
2023/02/26 00:58:39;;;;;;;0.50;0.50;;;2.00;99.90;;;;;;6247958;23;20023;-70
2023/02/26 01:01:05;;;;;;;0.50;0.50;;;2.00;99.90;;;;;;6221537;23;20012;-70
2023/02/26 01:03:31;;;;;;;0.60;0.60;;;1.80;99.90;;;;;;6248333;23;20008;-70
2023/02/26 01:05:57;;;;;;;0.50;0.50;;;1.80;99.90;;;;;;6221252;23;20008;-72
2023/02/26 01:09:12;;;;;;;0.50;0.50;;;1.80;99.90;;;;;;6195989;23;20463;-72
2023/02/26 01:11:38;;;;;;;0.47;0.47;;;1.90;99.90;;;;;;6072687;23;20019;-72
2023/02/26 01:14:04;;;;;;;0.50;0.50;;;1.80;99.90;;;;;;6096640;23;20114;-71
2023/02/26 01:16:40;;;;;;;0.50;0.50;;;1.90;99.90;;;;;;6072319;23;20435;-72
2023/02/26 01:19:33;;;;;;;0.50;0.50;;;1.90;99.90;;;;;;6096493;23;20015;-72
2023/02/26 01:22:07;;;;;;;0.50;0.50;;;1.90;99.90;;;;;;6096424;23;20090;-72
2023/02/26 01:24:33;;;;;;;0.60;0.60;;;1.80;99.90;;;;;;6073303;23;20077;-69
2023/02/26 01:26:59;;;;;;;0.50;0.50;;;1.80;99.90;;;;;;6096769;23;20014;-70
2023/02/26 01:29:25;;;;;;;0.50;0.50;;;1.80;99.90;;;;;;6072344;23;20021;-70
2023/02/26 01:32:21;;;;;;;0.50;0.50;;;1.80;99.90;;;;;;6072468;23;20015;-70
2023/02/26 01:35:19;;;;;;;0.40;0.40;;;1.80;99.90;;;;;;6096789;23;20038;-70
2023/02/26 01:38:14;;;;;;;0.43;0.43;;;1.70;99.90;;;;;;6097364;23;20015;-69
2023/02/26 01:41:22;;;;;;;0.45;0.45;;;1.70;99.90;;;;;;6097228;23;20093;-70
2023/02/26 01:44:10;;;;;;;0.60;0.60;;;1.70;99.90;;;;;;6072326;23;20029;-70
2023/02/26 01:46:45;;;;;;;0.50;0.50;;;1.70;99.90;;;;;;6220388;23;20051;-70
2023/02/26 01:49:14;;;;;;;0.52;0.52;;;1.50;99.90;;;;;;6248041;23;20099;-70
2023/02/26 01:51:40;;;;;;;0.60;0.60;;;1.50;99.90;;;;;;6248040;23;20016;-71
2023/02/26 01:54:05;;;;;;;0.55;0.55;;;1.50;99.90;;;;;;6220678;23;20008;-70
2023/02/26 01:56:31;;;;;;;0.50;0.50;;;1.50;99.90;;;;;;6220609;23;20087;-70
2023/02/26 01:58:58;;;;;;;0.60;0.60;;;1.40;99.90;;;;;;6221043;23;20378;-70
2023/02/26 02:01:23;;;;;;;0.57;0.57;;;1.40;99.90;;;;;;6247763;23;20306;-70
2023/02/26 02:03:49;;;;;;;0.50;0.50;;;1.40;99.90;;;;;;6247814;23;20070;-70
2023/02/26 02:06:24;;;;;;;0.60;0.60;;;1.50;99.90;;;;;;6247708;23;20012;-70
2023/02/26 02:08:50;;;;;;;0.55;0.55;;;1.40;99.90;;;;;;6220543;23;20008;-70
2023/02/26 02:11:16;;;;;;;0.52;0.52;;;1.50;99.90;;;;;;6247656;23;20070;-70
2023/02/26 02:13:48;;;;;;;0.60;0.60;;;1.40;99.90;;;;;;6220713;23;20016;-70
2023/02/26 02:16:44;;;;;;;0.50;0.50;;;1.50;99.90;;;;;;6220549;23;20019;-70
2023/02/26 02:19:38;;;;;;;0.50;0.50;;;1.50;99.90;;;;;;6220521;23;20023;-70
2023/02/26 02:22:10;;;;;;;0.47;0.47;;;1.50;99.90;;;;;;6220435;23;20024;-70
2023/02/26 02:25:13;;;;;;;0.50;0.50;;;1.50;99.90;;;;;;6247571;23;20044;-70
2023/02/26 02:27:56;;;;;;;0.50;0.50;;;1.60;99.90;;;;;;6247617;23;20086;-70
2023/02/26 02:30:22;;;;;;;0.55;0.55;;;1.50;99.90;;;;;;6220455;23;20012;-70
2023/02/26 02:32:59;;;;;;;0.50;0.50;;;1.50;99.90;;;;;;6220820;23;20130;-70
2023/02/26 02:35:36;;;;;;;0.50;0.50;;;1.50;99.90;;;;;;6221449;23;20352;-70
2023/02/26 02:38:10;;;;;;;0.45;0.45;;;1.60;99.90;;;;;;6220477;23;20408;-70
2023/02/26 02:40:42;;;;;;;0.50;0.50;;;1.60;99.90;;;;;;6246877;23;20040;-70
2023/02/26 02:43:17;;;;;;;0.60;0.60;;;1.60;99.90;;;;;;6246962;23;20020;-70
2023/02/26 02:46:03;;;;;;;0.50;0.50;;;1.60;99.90;;;;;;6220611;23;20042;-70
2023/02/26 02:48:47;;;;;;;0.57;0.57;;;1.60;99.90;;;;;;6248220;23;20012;-70
2023/02/26 02:51:21;;;;;;;0.60;0.60;;;1.60;99.90;;;;;;6247444;23;20023;-70
2023/02/26 02:53:55;;;;;;;0.60;0.60;;;1.50;99.90;;;;;;6247448;23;20015;-70
2023/02/26 02:56:39;;;;;;;0.50;0.50;;;1.40;99.90;;;;;;6220381;23;20016;-70
2023/02/26 02:59:24;;;;;;;0.50;0.50;;;1.50;99.90;;;;;;6246858;23;20437;-70
2023/02/26 03:02:17;;;;;;;0.60;0.60;;;1.40;99.90;;;;;;6247605;23;20020;-70
2023/02/26 03:04:43;;;;;;;0.60;0.60;;;1.30;99.90;;;;;;6245975;23;20012;-70
2023/02/26 03:07:09;;;;;;;0.60;0.60;;;1.10;99.90;;;;;;6220350;23;20122;-70
2023/02/26 03:09:35;;;;;;;0.50;0.50;;;1.10;99.90;;;;;;6247254;23;20058;-70
2023/02/26 03:12:01;;;;;;;0.50;0.50;;;1.10;99.90;;;;;;6246736;23;20368;-70
2023/02/26 03:14:28;;;;;;;0.50;0.50;;;1.00;99.90;;;;;;6247039;23;20332;-70
2023/02/26 03:17:12;;;;;;;0.60;0.60;;;1.00;99.90;;;;;;6194969;23;20012;-70
2023/02/26 03:20:16;;;;;;;0.40;0.40;;;0.80;99.90;;;;;;6247222;23;20040;-70
2023/02/26 03:23:12;;;;;;;0.40;0.40;;;0.60;99.90;;;;;;6219952;23;20016;-70
2023/02/26 03:25:51;;;;;;;0.50;0.50;;;0.50;99.90;;;;;;6220133;23;20429;-70
2023/02/26 03:28:31;;;;;;;0.60;0.60;;;0.30;99.90;;;;;;6194766;23;20012;-70
2023/02/26 03:31:22;;;;;;;0.52;0.52;;;0.20;99.90;;;;;;6246947;23;20012;-70
2023/02/26 03:34:16;;;;;;;0.55;0.55;;;0.20;99.90;;;;;;6246910;23;20047;-70
2023/02/26 03:36:55;;;;;;;0.50;0.50;;;0.10;99.90;;;;;;6247477;23;20008;-69
2023/02/26 03:39:29;;;;;;;0.60;0.60;;;0.10;99.90;;;;;;6246809;23;20087;-69
2023/02/26 03:42:07;;;;;;;0.60;0.60;;;-0.10;99.90;;;;;;6246298;23;20017;-71
2023/02/26 03:44:38;;;;;;;0.50;0.50;;;-0.20;99.90;;;;;;6246477;23;20078;-71
2023/02/26 03:47:11;;;;;;;0.50;0.50;;;-0.20;99.90;;;;;;6246842;23;20092;-70
2023/02/26 03:49:44;;;;;;;1.17;0.80;;;-0.10;99.90;;;;;;6219736;23;20036;-71
2023/02/26 03:52:12;;;;;;;0.50;0.50;;;0.00;99.90;;;;;;6194687;23;20008;-71
2023/02/26 03:54:48;;;;;;;0.60;0.60;;;0.00;99.90;;;;;;6246321;23;20109;-71
2023/02/26 03:57:14;;;;;;;0.50;0.50;;;0.10;99.90;;;;;;6246439;23;20061;-70
2023/02/26 03:59:40;;;;;;;0.60;0.60;;;0.20;99.90;;;;;;6219479;23;20023;-71
2023/02/26 04:02:17;;;;;;;0.60;0.60;;;0.20;99.90;;;;;;6219519;23;20047;-71
2023/02/26 04:04:58;;;;;;;0.50;0.50;;;0.30;99.90;;;;;;6219737;23;20016;-71
2023/02/26 04:07:23;;;;;;;0.60;0.60;;;0.40;99.90;;;;;;6219519;23;20016;-71
2023/02/26 04:09:50;;;;;;;0.60;0.60;;;0.40;99.90;;;;;;6246368;23;20341;-70
2023/02/26 04:12:22;;;;;;;0.50;0.50;;;0.40;99.90;;;;;;6219794;23;20019;-70
2023/02/26 04:14:48;;;;;;;0.50;0.50;;;0.40;99.90;;;;;;6219483;23;20044;-70
2023/02/26 04:17:13;;;;;;;0.60;0.60;;;0.40;99.90;;;;;;6220481;23;20066;-71
2023/02/26 04:19:39;;;;;;;0.50;0.50;;;0.20;99.90;;;;;;6219369;23;20380;-71
2023/02/26 04:22:05;;;;;;;0.50;0.50;;;0.10;99.90;;;;;;6219354;23;20013;-70
2023/02/26 04:24:30;;;;;;;0.57;0.57;;;-0.10;99.90;;;;;;6194354;23;20012;-70
2023/02/26 04:26:56;;;;;;;0.70;0.70;;;-0.20;99.90;;;;;;6246518;23;20016;-71
2023/02/26 04:29:22;;;;;;;0.50;0.50;;;-0.20;99.90;;;;;;6219445;23;20341;-70
2023/02/26 04:31:48;;;;;;;0.50;0.50;;;-0.30;99.90;;;;;;6219351;23;20008;-70
2023/02/26 04:34:14;;;;;;;0.50;0.50;;;-0.30;99.90;;;;;;6246402;23;20321;-70
2023/02/26 04:36:40;;;;;;;0.45;0.45;;;-0.40;99.90;;;;;;6246599;23;20066;-70
2023/02/26 04:39:06;;;;;;;0.60;0.60;;;-0.40;99.90;;;;;;6246499;23;20013;-71
2023/02/26 04:41:31;;;;;;;0.50;0.50;;;-0.40;99.90;;;;;;6245989;23;20016;-71
2023/02/26 04:43:57;;;;;;;0.50;0.50;;;-0.30;99.90;;;;;;6246486;23;20016;-71
2023/02/26 04:46:23;;;;;;;0.55;0.55;;;-0.20;99.90;;;;;;6219196;23;20352;-70
2023/02/26 04:48:48;;;;;;;0.60;0.60;;;-0.20;99.90;;;;;;6220311;23;20046;-71
2023/02/26 04:51:14;;;;;;;0.60;0.60;;;-0.10;99.90;;;;;;6219446;23;20384;-71
2023/02/26 04:53:39;;;;;;;0.50;0.50;;;0.00;99.90;;;;;;6219431;23;20337;-70
2023/02/26 04:56:06;;;;;;;0.52;0.50;;;0.00;99.90;;;;;;6194739;23;20019;-70
2023/02/26 04:58:32;;;;;;;0.50;0.50;;;-0.10;99.90;;;;;;6219402;23;20325;-70
2023/02/26 05:00:58;;;;;;;0.60;0.60;;;-0.10;99.90;;;;;;6219292;23;20016;-70
2023/02/26 05:03:23;;;;;;;0.60;0.60;;;0.00;99.90;;;;;;6219457;23;20016;-70
2023/02/26 05:05:49;;;;;;;0.47;0.47;;;0.10;99.90;;;;;;6246952;23;20087;-71
2023/02/26 05:08:15;;;;;;;0.52;0.52;;;0.10;99.90;;;;;;6246564;23;20054;-70
2023/02/26 05:10:40;;;;;;;0.68;0.68;;;0.20;99.90;;;;;;6219284;23;20457;-70
2023/02/26 05:13:06;;;;;;;0.57;0.57;;;0.20;99.90;;;;;;6247088;23;20302;-70
2023/02/26 05:15:32;;;;;;;0.60;0.60;;;0.20;99.90;;;;;;6219308;23;20337;-70
2023/02/26 05:17:57;;;;;;;0.50;0.50;;;0.10;99.90;;;;;;6246366;23;20332;-70
2023/02/26 05:20:23;;;;;;;0.50;0.50;;;-0.10;99.90;;;;;;6219160;23;20024;-71
2023/02/26 05:22:49;;;;;;;0.50;0.50;;;-0.20;99.90;;;;;;6248151;23;20107;-71
2023/02/26 05:25:16;;;;;;;0.55;0.55;;;-0.40;99.90;;;;;;6220902;23;20103;-70
2023/02/26 05:27:42;;;;;;;0.50;0.50;;;-0.60;99.90;;;;;;6220892;23;20009;-70
2023/02/26 05:30:11;;;;;;;0.60;0.60;;;-0.60;99.90;;;;;;6220932;23;20097;-70
2023/02/26 05:32:37;;;;;;;0.50;0.50;;;-0.50;99.90;;;;;;6220931;23;20023;-70
2023/02/26 05:35:03;;;;;;;0.57;0.57;;;-0.50;99.90;;;;;;6220896;23;20020;-70
2023/02/26 05:37:29;;;;;;;0.75;0.68;;;-0.40;99.90;;;;;;6195749;23;20088;-71
2023/02/26 05:39:54;;;;;;;0.60;0.60;;;-0.30;99.90;;;;;;6247530;23;20043;-70
2023/02/26 05:42:20;;;;;;;0.60;0.60;;;-0.20;99.90;;;;;;6247542;23;20016;-70
2023/02/26 05:44:46;;;;;;;0.50;0.50;;;-0.20;99.90;;;;;;6247642;23;20020;-70
2023/02/26 05:47:11;;;;;;;0.50;0.50;;;-0.10;99.90;;;;;;6247939;23;20012;-70
2023/02/26 05:49:37;;;;;;;0.70;0.70;;;0.00;99.90;;;;;;6220834;23;20016;-70
2023/02/26 05:52:03;;;;;;;0.52;0.52;;;0.10;99.90;;;;;;6248041;23;20008;-70
2023/02/26 05:54:28;;;;;;;0.57;0.57;;;0.10;99.90;;;;;;6220555;23;20070;-70
2023/02/26 05:56:54;;;;;;;0.50;0.50;;;0.20;99.90;;;;;;6247899;23;20008;-70
2023/02/26 05:59:20;;;;;;;0.57;0.57;;;0.20;99.90;;;;;;6220443;23;20023;-70
2023/02/26 06:01:46;;;;;;;0.75;0.75;;;0.20;99.90;;;;;;6220584;23;20345;-70
2023/02/26 06:04:12;;;;;;;0.60;0.60;;;0.20;99.90;;;;;;6247838;23;20076;-70
2023/02/26 06:06:38;;;;;;;0.68;0.68;;;0.20;99.90;;;;;;6220743;23;20016;-70
2023/02/26 06:09:03;;;;;;;0.50;0.50;;;0.20;99.90;;;;;;6247714;23;20079;-70
2023/02/26 06:11:29;;;;;;;0.55;0.55;;;0.30;99.90;;;;;;6220686;23;20012;-70
2023/02/26 06:13:55;;;;;;;0.95;0.70;;;0.30;99.90;;;;;;6220498;23;20019;-71
2023/02/26 06:16:21;;;;;;;0.80;0.70;;;0.30;99.90;;;;;;6247648;23;20016;-70
2023/02/26 06:18:48;;;;;;;0.55;0.55;;;0.30;99.90;;;;;;6220467;23;20343;-70
2023/02/26 06:21:15;;;;;;;0.50;0.50;;;0.40;99.90;;;;;;6220560;23;20436;-70
2023/02/26 06:23:41;;;;;;;0.52;0.52;;;0.40;99.90;;;;;;6220416;23;20020;-70
2023/02/26 06:26:07;;;;;;;0.60;0.50;;;0.30;99.90;;;;;;6247513;23;20050;-70
2023/02/26 06:28:32;;;;;;;0.50;0.50;;;0.40;99.90;;;;;;6220391;23;20016;-70
2023/02/26 06:30:58;;;;;;;0.60;0.60;;;0.40;99.90;;;;;;6247217;23;20339;-70
2023/02/26 06:33:24;;;;;;;0.50;0.50;;;0.50;99.90;;;;;;6247152;23;20016;-70
2023/02/26 06:35:50;;;;;;;0.60;0.60;;;0.50;99.90;;;;;;6220498;23;20463;-71
2023/02/26 06:38:16;;;;;;;0.50;0.50;;;0.50;99.90;;;;;;6247356;23;20023;-70
2023/02/26 06:40:42;;;;;;;0.50;0.50;;;0.50;99.90;;;;;;6247295;23;20116;-70
2023/02/26 06:43:07;;;;;;;0.50;0.50;;;0.50;99.90;;;;;;6220006;23;20044;-71
2023/02/26 06:45:33;;;;;;;0.52;0.52;;;0.60;99.90;;;;;;6247354;23;20012;-71
2023/02/26 06:47:59;;;;;;;0.60;0.60;;;0.60;99.90;;;;;;6247346;23;20004;-71
2023/02/26 06:50:25;;;;;;;0.50;0.50;;;0.60;99.90;;;;;;6247367;23;20333;-71
2023/02/26 06:52:50;;;;;;;0.60;0.60;;;0.60;99.90;;;;;;6247293;23;20154;-71
2023/02/26 06:55:16;;;;;;;0.70;0.70;;;0.60;99.90;;;;;;6220886;23;20012;-71
2023/02/26 06:57:42;;;;;;;0.60;0.60;;;0.70;99.90;;;;;;6246805;23;20012;-71
2023/02/26 07:00:09;;;;;;;0.50;0.50;;;0.70;99.90;;;;;;6247118;23;20054;-69
2023/02/26 07:02:34;;;;;;;0.52;0.52;;;0.70;99.90;;;;;;6247140;23;20010;-69
2023/02/26 07:05:00;;;;;;;0.60;0.60;;;0.70;99.90;;;;;;6246958;23;20086;-69
2023/02/26 07:07:26;;;;;;;0.50;0.50;;;0.70;99.90;;;;;;6247521;23;20016;-69
2023/02/26 07:09:51;;;;;;;0.60;0.60;;;0.70;99.90;;;;;;6220112;23;20016;-69
2023/02/26 07:12:17;;;;;;;0.47;0.47;;;0.70;99.90;;;;;;6246728;23;20020;-69
2023/02/26 07:14:44;;;;;;;0.63;0.63;;;0.70;99.90;;;;;;6247194;23;20020;-69
2023/02/26 07:17:19;;;;;;;0.60;0.60;;;0.70;99.90;;;;;;6220313;23;20009;-69
2023/02/26 07:19:49;;;;;;;0.60;0.60;;;0.70;99.90;;;;;;6220345;23;20019;-69
2023/02/26 07:22:16;;;;;;;0.60;0.60;;;0.70;99.90;;;;;;6220084;23;20038;-69
2023/02/26 07:24:42;;;;;;;0.60;0.60;;;0.60;99.90;;;;;;6219937;23;20079;-69
2023/02/26 07:27:08;;;;;;;0.63;0.63;;;0.70;99.90;;;;;;6220002;23;20016;-69
2023/02/26 07:29:34;;;;;;;0.52;0.52;;;0.70;99.90;;;;;;6246768;23;20057;-69
2023/02/26 07:31:59;;;;;;;0.50;0.50;;;0.70;99.90;;;;;;6219808;23;20441;-69
2023/02/26 07:34:25;;;;;;;0.60;0.60;;;0.80;99.90;;;;;;6219922;23;20023;-69
2023/02/26 07:36:51;;;;;;;0.57;0.57;;;0.80;99.90;;;;;;6219874;23;20341;-69
2023/02/26 07:39:16;;;;;;;0.60;0.60;;;0.80;99.90;;;;;;6246456;23;20019;-69
2023/02/26 07:41:42;;;;;;;0.50;0.50;;;0.90;99.90;;;;;;6219736;23;20016;-69
2023/02/26 07:44:07;;;;;;;0.60;0.60;;;0.90;99.90;;;;;;6246555;23;20008;-69
2023/02/26 07:46:33;;;;;;;0.60;0.60;;;1.00;99.90;;;;;;6219596;23;20020;-69
2023/02/26 07:48:59;;;;;;;0.55;0.55;;;1.00;99.90;;;;;;6219653;23;20394;-69
2023/02/26 07:51:24;;;;;;;0.60;0.60;;;1.10;99.90;;;;;;6219844;23;20059;-69
2023/02/26 07:53:50;;;;;;;0.63;0.63;;;1.20;99.90;;;;;;6220031;23;20012;-69
2023/02/26 07:56:16;;;;;;;0.73;0.73;;;1.20;99.90;;;;;;6219628;23;20023;-69
2023/02/26 07:58:41;;;;;;;0.50;0.50;;;1.30;99.90;;;;;;6219484;23;20020;-69
2023/02/26 08:01:07;;;;;;;0.60;0.60;;;1.30;99.90;;;;;;6246519;23;20017;-69
2023/02/26 08:03:32;;;;;;;0.60;0.60;;;1.30;99.90;;;;;;6247065;23;20019;-69
2023/02/26 08:06:01;;;;;;;0.50;0.50;;;1.40;99.90;;;;;;6194397;23;20441;-69
2023/02/26 08:08:28;;;;;;;0.60;0.60;;;1.50;99.90;;;;;;6219387;23;20362;-69
2023/02/26 08:10:53;;;;;;;0.68;0.68;;;1.50;99.90;;;;;;6219443;23;20078;-69
2023/02/26 08:13:19;;;;;;;0.47;0.47;;;1.50;99.90;;;;;;6219475;23;20083;-69
2023/02/26 08:15:47;;;;;;;0.50;0.50;;;1.60;99.90;;;;;;6219457;23;20023;-69
2023/02/26 08:18:12;;;;;;;0.60;0.60;;;1.60;99.90;;;;;;6246540;23;20088;-69
2023/02/26 08:20:38;;;;;;;0.47;0.47;;;1.70;99.90;;;;;;6219319;23;20051;-69
2023/02/26 08:23:04;;;;;;;0.50;0.50;;;1.70;99.90;;;;;;6219326;23;20050;-69
2023/02/26 08:25:29;;;;;;;0.50;0.50;;;1.80;99.90;;;;;;6219534;23;20008;-69
2023/02/26 08:27:57;;;;;;;0.60;0.60;;;1.80;99.90;;;;;;6246225;23;20396;-69
2023/02/26 08:30:23;;;;;;;0.50;0.50;;;1.90;99.90;;;;;;6246998;23;20047;-69
2023/02/26 08:32:49;;;;;;;0.50;0.50;;;1.90;99.90;;;;;;6246595;23;20091;-69
2023/02/26 08:35:15;;;;;;;0.60;0.60;;;2.00;99.90;;;;;;6246505;23;20456;-69
2023/02/26 08:37:41;;;;;;;0.50;0.50;;;2.10;99.90;;;;;;6246721;23;20010;-69
2023/02/26 08:40:08;;;;;;;0.50;0.50;;;2.10;99.90;;;;;;6246486;23;20336;-69
2023/02/26 08:42:34;;;;;;;0.50;0.50;;;2.20;99.90;;;;;;6245958;23;20012;-69
2023/02/26 08:45:00;;;;;;;0.50;0.50;;;2.30;99.90;;;;;;6246099;23;20047;-69
2023/02/26 08:47:25;;;;;;;0.45;0.45;;;2.30;99.90;;;;;;6246414;23;20013;-69
2023/02/26 08:49:51;;;;;;;0.50;0.50;;;2.40;99.90;;;;;;6246361;23;20452;-69
2023/02/26 08:52:17;;;;;;;0.50;0.50;;;2.50;99.90;;;;;;6246540;23;20083;-69
2023/02/26 08:54:42;;;;;;;0.50;0.50;;;2.60;99.90;;;;;;6246459;23;20383;-69
2023/02/26 08:57:08;;;;;;;0.60;0.60;;;2.70;99.90;;;;;;6247582;23;20483;-69
2023/02/26 08:59:33;;;;;;;0.47;0.47;;;2.80;99.90;;;;;;6247974;23;20083;-69
2023/02/26 09:01:59;;;;;;;0.52;0.52;;;2.90;99.90;;;;;;6248409;23;20008;-69
2023/02/26 09:04:25;;;;;;;0.50;0.50;;;3.00;99.90;;;;;;6221297;23;20031;-69
2023/02/26 09:06:51;;;;;;;0.50;0.50;;;3.10;99.90;;;;;;6221374;23;20328;-69
2023/02/26 09:09:18;;;;;;;0.40;0.40;;;3.20;99.90;;;;;;6248331;23;20018;-69
2023/02/26 09:11:44;;;;;;;0.50;0.50;;;3.30;99.90;;;;;;6221051;23;20094;-69
2023/02/26 09:14:10;;;;;;;0.40;0.40;;;3.50;99.90;;;;;;6247899;23;20456;-70
2023/02/26 09:16:36;;;;;;;0.40;0.40;;;3.60;99.90;;;;;;6248307;23;20031;-70
2023/02/26 09:19:03;;;;;;;0.50;0.50;;;3.70;99.90;;;;;;6221125;23;20080;-70
2023/02/26 09:21:29;;;;;;;0.40;0.40;;;3.80;99.90;;;;;;6220923;23;20012;-70
2023/02/26 09:23:55;;;;;;;0.40;0.40;;;4.00;99.90;;;;;;6248126;23;20011;-70
2023/02/26 09:26:21;;;;;;;0.50;0.50;;;4.10;99.90;;;;;;6195958;23;20040;-70
2023/02/26 09:28:46;;;;;;;0.50;0.50;;;4.10;99.90;;;;;;6248150;23;20008;-70
2023/02/26 09:31:12;;;;;;;0.47;0.47;;;4.30;99.90;;;;;;6195924;23;20016;-70
2023/02/26 09:33:38;;;;;;;0.47;0.47;;;4.30;99.90;;;;;;6248512;23;20016;-70
2023/02/26 09:36:04;;;;;;;0.40;0.40;;;4.50;99.90;;;;;;6248143;23;20437;-70
2023/02/26 09:38:29;;;;;;;0.52;0.50;;;4.50;99.90;;;;;;6220902;23;20055;-70
2023/02/26 09:40:57;;;;;;;0.40;0.40;;;4.60;99.90;;;;;;6220833;23;20023;-70
2023/02/26 09:43:25;;;;;;;0.40;0.40;;;4.70;99.90;;;;;;6220819;23;20023;-70
2023/02/26 09:45:53;;;;;;;0.50;0.50;;;4.80;99.90;;;;;;6220843;23;20088;-70
2023/02/26 09:48:21;;;;;;;0.50;0.50;;;5.00;99.90;;;;;;6220764;23;20088;-70
2023/02/26 09:50:56;;;;;;;0.50;0.50;;;5.10;99.90;;;;;;6248069;23;20008;-70
2023/02/26 09:53:27;;;;;;;0.40;0.40;;;5.20;99.90;;;;;;6248007;23;20016;-70
2023/02/26 09:56:00;;;;;;;0.60;0.60;;;5.40;99.70;;;;;;6220775;23;20286;-70
2023/02/26 09:58:32;;;;;;;0.50;0.50;;;5.50;98.30;;;;;;6221658;23;20019;-70
2023/02/26 10:01:12;;;;;;;0.50;0.50;;;5.50;98.70;;;;;;6195486;23;20023;-70
2023/02/26 10:04:16;;;;;;;0.57;0.57;;;5.60;98.10;;;;;;6221531;23;20330;-70
2023/02/26 10:07:10;;;;;;;0.40;0.40;;;5.60;97.30;;;;;;6247808;23;20065;-70
2023/02/26 10:09:46;;;;;;;0.50;0.50;;;5.60;97.40;;;;;;6248016;23;20013;-74
2023/02/26 10:12:21;;;;;;;0.45;0.45;;;5.60;97.70;;;;;;6247753;23;20015;-69
2023/02/26 10:15:25;;;;;;;0.32;0.32;;;5.80;97.50;;;;;;6248005;23;20062;-70
2023/02/26 10:18:09;;;;;;;0.35;0.35;;;5.90;96.90;;;;;;6247783;23;20008;-70
2023/02/26 10:20:38;;;;;;;0.50;0.50;;;5.90;96.60;;;;;;6247590;23;20012;-70
2023/02/26 10:23:07;;;;;;;0.40;0.40;;;6.00;97.30;;;;;;6247608;23;20020;-71
2023/02/26 10:25:40;;;;;;;0.40;0.40;;;6.10;97.00;;;;;;6220708;23;20447;-70
2023/02/26 10:28:23;;;;;;;0.30;0.30;;;6.20;95.50;;;;;;6247702;23;20008;-70
2023/02/26 10:30:57;;;;;;;0.38;0.38;;;6.30;94.50;;;;;;6247209;23;20492;-70
2023/02/26 10:33:44;;;;;;;0.30;0.30;;;6.40;95.10;;;;;;6220351;23;20012;-70
2023/02/26 10:36:29;;;;;;;0.40;0.40;;;6.50;95.60;;;;;;6220495;23;20016;-70
2023/02/26 10:39:10;;;;;;;0.32;0.32;;;6.60;95.50;;;;;;6247520;23;20005;-70
2023/02/26 10:41:36;;;;;;;0.32;0.32;;;6.50;95.60;;;;;;6219961;23;20401;-70
2023/02/26 10:44:15;;;;;;;0.40;0.40;;;6.60;95.90;;;;;;6248131;23;20048;-71
2023/02/26 10:47:15;;;;;;;0.40;0.40;;;6.70;95.40;;;;;;6248004;23;20016;-70
2023/02/26 10:49:59;;;;;;;0.20;0.20;;;6.80;94.80;;;;;;6247456;23;20012;-68
2023/02/26 10:52:28;;;;;;;0.32;0.32;;;6.90;95.20;;;;;;6247476;23;20012;-73
2023/02/26 10:55:03;;;;;;;0.30;0.30;;;7.00;94.50;;;;;;6247322;23;20012;-69
2023/02/26 10:57:37;;;;;;;0.30;0.30;;;7.00;94.00;;;;;;6247216;23;20083;-69
2023/02/26 11:00:05;;;;;;;0.40;0.40;;;7.10;93.90;;;;;;6247255;23;20438;-69
2023/02/26 11:02:41;;;;;;;0.30;0.30;;;7.10;92.90;;;;;;6247214;23;20044;-70
2023/02/26 11:05:18;;;;;;;0.30;0.30;;;7.10;93.20;;;;;;6220012;23;20008;-69
2023/02/26 11:07:54;;;;;;;0.35;0.35;;;7.10;92.20;;;;;;6220865;23;20087;-73
2023/02/26 11:10:24;;;;;;;0.40;0.40;;;7.20;92.80;;;;;;6220117;23;20122;-70
2023/02/26 11:12:51;;;;;;;0.40;0.40;;;7.10;92.10;;;;;;6220137;23;20434;-71
2023/02/26 11:15:24;;;;;;;0.30;0.30;;;7.00;91.40;;;;;;6247187;23;20054;-70
2023/02/26 11:17:55;;;;;;;0.30;0.30;;;7.00;92.10;;;;;;6247244;23;20043;-70
2023/02/26 11:20:35;;;;;;;0.30;0.30;;;7.00;92.40;;;;;;6246844;23;20016;-70
2023/02/26 11:23:03;;;;;;;0.57;0.32;;;6.90;92.20;;;;;;6247105;23;20012;-70
2023/02/26 11:25:31;;;;;;;0.30;0.30;;;6.90;92.30;;;;;;6219760;23;20337;-69
2023/02/26 11:28:03;;;;;;;0.30;0.30;;;6.90;92.30;;;;;;6219944;23;20372;-74
2023/02/26 11:30:36;;;;;;;0.32;0.32;;;6.90;91.30;;;;;;6246980;23;20012;-76
2023/02/26 11:33:22;;;;;;;0.25;0.25;;;6.90;91.40;;;;;;6219857;23;20344;-70
2023/02/26 11:35:48;;;;;;;0.43;0.43;;;6.70;91.60;;;;;;6219864;23;20012;-70
2023/02/26 11:38:19;;;;;;;0.40;0.40;;;6.60;92.30;;;;;;6246495;23;20353;-70
2023/02/26 11:40:48;;;;;;;0.30;0.30;;;6.50;91.80;;;;;;6219479;23;20008;-70
2023/02/26 11:43:18;;;;;;;0.30;0.30;;;6.50;91.60;;;;;;6246279;23;20089;-70
2023/02/26 11:45:57;;;;;;;0.40;0.40;;;6.50;91.90;;;;;;6219628;23;20012;-70
2023/02/26 11:48:45;;;;;;;0.40;0.40;;;6.50;91.80;;;;;;6246542;23;20440;-71
2023/02/26 11:51:15;;;;;;;0.50;0.50;;;6.60;92.60;;;;;;6246683;23;20429;-71
2023/02/26 11:53:51;;;;;;;;;;;6.60;92.40;;;;;;6247487;23;20013;-71
2023/02/26 11:56:40;;;;;;;0.40;0.40;;;6.60;91.50;;;;;;6246868;23;19912;-71
2023/02/26 11:59:29;;;;;;;0.40;0.40;;;6.60;91.50;;;;;;6247013;23;20008;-71
2023/02/26 12:01:54;;;;;;;0.40;0.40;;;6.60;91.90;;;;;;6246986;23;20012;-76
2023/02/26 12:04:25;;;;;;;0.30;0.30;;;6.50;92.30;;;;;;6246514;23;20091;-75
2023/02/26 12:06:52;;;;;;;0.40;0.40;;;6.70;92.90;;;;;;6219696;23;20027;-72
2023/02/26 12:09:19;;;;;;;0.40;0.40;;;6.90;91.90;;;;;;6219675;23;20255;-72
2023/02/26 12:12:03;;;;;;;0.30;0.30;;;7.10;92.40;;;;;;6246704;23;20016;-71
2023/02/26 12:14:49;;;;;;;0.30;0.30;;;7.20;92.80;;;;;;6219548;23;20020;-73
2023/02/26 12:17:28;;;;;;;0.40;0.40;;;7.30;92.10;;;;;;6219423;23;20016;-71
2023/02/26 12:20:18;;;;;;;0.40;0.40;;;7.40;92.00;;;;;;6219381;23;20024;-71
2023/02/26 12:23:06;;;;;;;0.40;0.40;;;7.50;90.80;;;;;;6247127;23;20020;-72
2023/02/26 12:25:32;;;;;;;0.50;0.50;;;7.50;91.40;;;;;;6219221;23;20437;-72
2023/02/26 12:28:22;;;;;;;0.50;0.50;;;7.70;92.60;;;;;;6219393;23;20012;-72
2023/02/26 12:30:55;;;;;;;0.75;0.75;;;8.10;92.30;;;;;;6247705;23;20016;-74
2023/02/26 12:33:30;;;;;;;0.30;0.30;;;8.70;91.70;;;;;;6249955;23;20023;-76
2023/02/26 12:35:55;;;;;;;0.30;0.30;;;9.20;89.00;;;;;;6222654;23;20441;-75
2023/02/26 12:38:47;;;;;;;0.45;0.45;;;9.70;88.60;;;;;;6222767;23;20047;-75
2023/02/26 12:41:18;;;;;;;0.20;0.20;;;10.30;85.80;;;;;;6191404;23;20048;-75
2023/02/26 12:43:49;;;;;;;0.20;0.20;;;10.70;78.60;;;;;;6222849;23;20078;-76
2023/02/26 12:46:26;;;;;;;0.30;0.30;;;10.60;77.80;;;;;;6223380;23;20008;-76
2023/02/26 12:49:18;;;;;;;0.30;0.30;;;10.50;78.00;;;;;;6222675;23;20016;-76
2023/02/26 12:51:50;;;;;;;0.30;0.30;;;10.70;78.40;;;;;;6250292;23;20055;-75
2023/02/26 12:54:21;;;;;;;0.20;0.20;;;10.90;78.90;;;;;;6249520;23;20012;-75
2023/02/26 12:57:11;;;;;;;0.30;0.30;;;11.70;77.50;;;;;;6222744;23;20016;-76
2023/02/26 13:00:11;;;;;;;0.20;0.20;;;12.50;71.70;;;;;;6249503;23;20039;-76
2023/02/26 13:02:56;;;;;;;;;;;12.90;71.40;;;;;;6215425;23;20016;-76
2023/02/26 13:05:45;;;;;;;0.20;0.20;;;13.80;68.40;;;;;;6249723;23;19962;-76
2023/02/26 13:08:21;;;;;;;0.20;0.20;;;15.00;66.60;;;;;;6250037;23;20078;-76
2023/02/26 13:11:06;;;;;;;0.30;0.30;;;15.50;60.80;;;;;;6222625;23;20016;-76
2023/02/26 13:14:12;;;;;;;0.20;0.20;;;15.70;59.50;;;;;;6222650;23;20020;-74
2023/02/26 13:16:46;;;;;;;0.30;0.30;;;16.60;56.10;;;;;;6197506;23;20012;-76
2023/02/26 13:19:37;;;;;;;0.22;0.22;;;17.30;55.90;;;;;;6249461;23;20012;-75